createdAt,value
2019-04-07T00:00:17.749Z,41.95
2019-04-07T00:02:48.521Z,42.33
2019-04-07T00:05:19.620Z,39.38
2019-04-07T00:07:50.142Z,41.13
2019-04-07T00:10:20.551Z,40.52
2019-04-07T00:12:50.903Z,41.40
2019-04-07T00:15:23.064Z,41.13
2019-04-07T00:17:54.342Z,38.13
2019-04-07T00:20:25.331Z,34.78
2019-04-07T00:22:55.708Z,34.35
2019-04-07T00:25:26.140Z,34.03
2019-04-07T00:27:56.398Z,36.83
2019-04-07T00:30:26.738Z,37.73
2019-04-07T00:32:57.268Z,37.42
2019-04-07T00:35:31.988Z,35.55
2019-04-07T00:37:59.611Z,34.83
2019-04-07T00:40:32.979Z,35.13
2019-04-07T00:43:03.413Z,37.67
2019-04-07T00:45:33.780Z,36.85
2019-04-07T00:48:04.090Z,31.48
2019-04-07T00:50:34.723Z,35.10
2019-04-07T00:53:05.667Z,35.25
2019-04-07T00:55:36.048Z,37.73
2019-04-07T00:58:06.375Z,39.20
2019-04-07T01:00:38.798Z,40.85
2019-04-07T01:03:10.654Z,41.55
2019-04-07T01:05:43.432Z,39.70
2019-04-07T01:08:14.018Z,38.10
2019-04-07T01:10:44.291Z,39.18
2019-04-07T01:13:15.332Z,41.35
2019-04-07T01:15:46.003Z,40.35
2019-04-07T01:18:16.514Z,40.60
2019-04-07T01:20:46.921Z,38.80
2019-04-07T01:23:17.187Z,41.98
2019-04-07T01:25:48.307Z,38.63
2019-04-07T01:28:18.452Z,39.33
2019-04-07T01:30:49.119Z,44.15
2019-04-07T01:33:19.543Z,37.75
2019-04-07T01:35:50.402Z,42.40
2019-04-07T01:38:21.325Z,41.23
2019-04-07T01:40:56.796Z,40.15
2019-04-07T01:43:29.233Z,40.12
2019-04-07T01:46:11.037Z,48.65
2019-04-07T01:48:49.421Z,42.45
2019-04-07T01:51:40.097Z,54.25
2019-04-07T01:54:21.809Z,54.77
2019-04-07T01:57:00.178Z,55.90
2019-04-07T01:59:48.686Z,53.23
2019-04-07T02:02:26.619Z,58.02
2019-04-07T02:05:01.422Z,64.65
2019-04-07T02:07:33.804Z,63.13
2019-04-07T02:10:07.630Z,56.02
2019-04-07T02:12:42.375Z,56.58
2019-04-07T02:15:21.951Z,52.25
2019-04-07T02:17:53.779Z,54.18
2019-04-07T02:20:49.011Z,58.13
2019-04-07T02:23:23.999Z,54.93
2019-04-07T02:25:55.922Z,57.08
2019-04-07T02:28:30.815Z,60.95
2019-04-07T02:31:02.957Z,53.73
2019-04-07T02:33:35.271Z,51.58
2019-04-07T02:36:17.934Z,53.45
2019-04-07T02:38:41.424Z,52.93
2019-04-07T02:41:31.121Z,52.98
2019-04-07T02:44:05.776Z,53.40
2019-04-07T02:46:53.410Z,49.33
2019-04-07T02:49:30.232Z,52.13
2019-04-07T02:52:18.579Z,52.50
2019-04-07T02:54:53.599Z,49.25
2019-04-07T02:57:29.690Z,52.25
2019-04-07T03:00:01.825Z,53.42
2019-04-07T03:02:42.508Z,57.45
2019-04-07T03:05:22.291Z,60.88
2019-04-07T03:07:57.461Z,57.03
2019-04-07T03:10:33.411Z,63.55
2019-04-07T03:13:18.300Z,67.32
2019-04-07T03:15:52.994Z,65.05
2019-04-07T03:18:31.634Z,69.37
2019-04-07T03:21:06.357Z,64.82
2019-04-07T03:23:51.397Z,70.97
2019-04-07T03:26:40.674Z,66.60
2019-04-07T03:29:18.441Z,62.58
2019-04-07T03:31:51.368Z,67.67
2019-04-07T03:34:40.816Z,62.62
2019-04-07T03:37:29.763Z,69.07
2019-04-07T03:39:54.544Z,73.67
2019-04-07T03:42:27.273Z,67.95
2019-04-07T03:44:59.136Z,64.32
2019-04-07T03:47:37.614Z,68.07
2019-04-07T03:50:12.607Z,66.72
2019-04-07T03:52:54.484Z,65.28
2019-04-07T03:55:32.444Z,65.72
2019-04-07T03:58:14.113Z,67.35
2019-04-07T04:01:20.697Z,70.57
2019-04-07T04:04:07.829Z,76.67
2019-04-07T04:06:56.681Z,70.08
2019-04-07T04:09:39.746Z,65.87
2019-04-07T04:12:21.123Z,69.58
2019-04-07T04:15:15.175Z,67.15
2019-04-07T04:17:45.708Z,71.20
2019-04-07T04:20:16.195Z,67.00
2019-04-07T04:22:46.562Z,67.60
2019-04-07T04:25:17.222Z,66.45
2019-04-07T04:27:48.520Z,69.40
2019-04-07T04:30:19.312Z,66.35
2019-04-07T04:32:49.705Z,66.05
2019-04-07T04:35:20.095Z,64.87
2019-04-07T04:37:53.392Z,71.15
2019-04-07T04:40:22.458Z,68.25
2019-04-07T04:42:54.935Z,74.50
2019-04-07T04:45:25.308Z,63.02
2019-04-07T04:47:56.201Z,66.65
2019-04-07T04:50:27.443Z,68.90
2019-04-07T04:52:58.556Z,66.42
2019-04-07T04:55:29.733Z,71.80
2019-04-07T04:58:00.331Z,68.67
2019-04-07T05:00:32.103Z,76.33
2019-04-07T05:03:03.037Z,71.97
2019-04-07T05:05:33.293Z,70.50
2019-04-07T05:08:05.500Z,74.60
2019-04-07T05:10:37.008Z,75.50
2019-04-07T05:13:07.739Z,75.17
2019-04-07T05:15:38.025Z,71.45
2019-04-07T05:18:09.783Z,70.80
2019-04-07T05:20:40.761Z,67.62
2019-04-07T05:23:11.360Z,78.28
2019-04-07T05:25:42.795Z,80.62
2019-04-07T05:28:13.235Z,83.15
2019-04-07T05:30:44.179Z,81.20
2019-04-07T05:33:14.431Z,70.65
2019-04-07T05:35:45.020Z,73.12
2019-04-07T05:38:17.950Z,77.53
2019-04-07T05:40:48.200Z,77.78
2019-04-07T05:43:18.553Z,77.95
2019-04-07T05:45:48.882Z,78.75
2019-04-07T05:48:20.300Z,69.32
2019-04-07T05:50:51.322Z,79.40
2019-04-07T05:53:22.361Z,74.53
2019-04-07T05:55:59.910Z,74.95
2019-04-07T05:58:30.248Z,73.65
2019-04-07T06:01:00.728Z,70.95
2019-04-07T06:03:31.804Z,74.05
2019-04-07T06:06:02.869Z,71.95
2019-04-07T06:08:37.954Z,76.82
2019-04-07T06:11:06.193Z,78.15
2019-04-07T06:13:36.680Z,74.47
2019-04-07T06:16:07.952Z,65.05
2019-04-07T06:18:39.438Z,66.20
2019-04-07T06:21:10.207Z,71.35
2019-04-07T06:23:41.623Z,67.78
2019-04-07T06:26:13.069Z,66.33
2019-04-07T06:28:43.890Z,62.62
2019-04-07T06:31:15.678Z,65.62
2019-04-07T06:33:46.806Z,64.55
2019-04-07T06:36:19.444Z,64.07
2019-04-07T06:38:51.820Z,61.45
2019-04-07T06:41:21.780Z,59.63
2019-04-07T06:44:08.204Z,58.17
2019-04-07T06:46:33.436Z,54.27
2019-04-07T06:49:05.911Z,55.40
2019-04-07T06:51:54.479Z,53.90
2019-04-07T06:54:40.045Z,61.37
2019-04-07T06:57:12.325Z,57.75
2019-04-07T07:00:04.167Z,55.60
2019-04-07T07:02:36.834Z,57.00
2019-04-07T07:05:12.022Z,59.03
2019-04-07T07:07:43.498Z,57.80
2019-04-07T07:10:28.693Z,53.17
2019-04-07T07:13:01.933Z,55.92
2019-04-07T07:15:50.186Z,51.85
2019-04-07T07:18:23.693Z,53.30
2019-04-07T07:21:05.122Z,59.73
2019-04-07T07:23:44.824Z,52.00
2019-04-07T07:26:12.295Z,53.80
2019-04-07T07:28:43.952Z,54.90
2019-04-07T07:31:15.478Z,59.95
2019-04-07T07:33:46.106Z,55.08
2019-04-07T07:36:19.157Z,58.30
2019-04-07T07:38:56.331Z,54.73
2019-04-07T07:41:22.367Z,53.85
2019-04-07T07:43:52.381Z,55.85
2019-04-07T07:46:23.782Z,59.18
2019-04-07T07:48:58.778Z,63.92
2019-04-07T07:51:26.935Z,60.75
2019-04-07T07:54:00.750Z,57.30
2019-04-07T07:56:29.300Z,60.05
2019-04-07T07:59:01.360Z,60.43
2019-04-07T08:01:32.221Z,56.73
2019-04-07T08:04:03.484Z,56.88
2019-04-07T08:06:33.991Z,50.15
2019-04-07T08:09:13.712Z,54.33
2019-04-07T08:11:39.944Z,53.10
2019-04-07T08:14:15.486Z,53.00
2019-04-07T08:16:43.577Z,50.30
2019-04-07T08:19:14.074Z,42.93
2019-04-07T08:21:45.582Z,47.00
2019-04-07T08:24:19.238Z,49.42
2019-04-07T08:29:19.022Z,54.77
2019-04-07T08:31:53.176Z,55.28
2019-04-07T08:34:22.128Z,50.43
2019-04-07T08:36:53.026Z,50.12
2019-04-07T08:39:26.677Z,56.33
2019-04-07T08:41:56.082Z,55.60
2019-04-07T08:44:29.287Z,51.13
2019-04-07T08:46:59.019Z,56.55
2019-04-07T08:49:32.321Z,52.30
2019-04-07T08:52:07.990Z,61.80
2019-04-07T08:54:34.031Z,51.70
2019-04-07T08:57:11.346Z,59.03
2019-04-07T08:59:42.960Z,52.73
2019-04-07T09:02:13.670Z,58.28
2019-04-07T09:04:49.959Z,55.12
2019-04-07T09:07:17.552Z,55.30
2019-04-07T09:09:49.136Z,60.45
2019-04-07T09:12:20.680Z,53.20
2019-04-07T09:14:51.390Z,49.35
2019-04-07T09:17:32.262Z,51.80
2019-04-07T09:20:10.559Z,51.37
2019-04-07T09:22:43.493Z,50.98
2019-04-07T09:25:21.495Z,53.23
2019-04-07T09:27:54.015Z,52.78
2019-04-07T09:30:35.605Z,52.53
2019-04-07T09:33:24.244Z,52.45
2019-04-07T09:36:05.318Z,57.08
2019-04-07T09:38:57.017Z,52.30
2019-04-07T09:41:41.643Z,49.93
2019-04-07T09:44:22.292Z,55.48
2019-04-07T09:46:54.253Z,51.68
2019-04-07T09:49:30.914Z,57.67
2019-04-07T09:52:13.215Z,54.45
2019-04-07T09:54:51.809Z,48.87
2019-04-07T09:57:25.886Z,52.58
2019-04-07T09:59:58.065Z,51.37
2019-04-07T10:02:35.492Z,51.98
2019-04-07T10:05:26.114Z,47.93
2019-04-07T10:07:59.279Z,51.13
2019-04-07T10:10:42.006Z,50.60
2019-04-07T10:13:14.574Z,48.75
2019-04-07T10:15:54.998Z,46.02
2019-04-07T10:18:34.828Z,48.30
2019-04-07T10:21:09.886Z,50.00
2019-04-07T10:23:57.445Z,50.05
2019-04-07T10:26:47.515Z,51.68
2019-04-07T10:29:38.189Z,51.42
2019-04-07T10:32:27.054Z,41.08
2019-04-07T10:35:08.781Z,45.75
2019-04-07T10:37:51.334Z,41.75
2019-04-07T10:40:35.705Z,48.83
2019-04-07T10:45:56.061Z,45.78
2019-04-07T10:48:40.137Z,44.03
2019-04-07T10:54:47.101Z,41.85
2019-04-07T10:57:59.859Z,41.95
2019-04-07T11:03:21.391Z,39.90
2019-04-07T11:05:53.722Z,44.23
2019-04-07T11:08:41.037Z,56.48
2019-04-07T11:14:45.469Z,48.15
2019-04-07T11:17:17.544Z,44.00
2019-04-07T11:23:19.150Z,40.05
2019-04-07T11:25:51.353Z,46.00
2019-04-07T11:28:32.184Z,38.28
2019-04-07T11:31:16.824Z,37.83
2019-04-07T11:33:51.350Z,38.95
2019-04-07T11:36:32.012Z,38.33
2019-04-07T11:39:11.146Z,36.30
2019-04-07T11:41:52.722Z,38.98
2019-04-07T11:44:34.006Z,38.50
2019-04-07T11:47:15.368Z,42.62
2019-04-07T11:49:49.584Z,41.70
2019-04-07T11:55:00.962Z,37.88
2019-04-07T11:57:34.336Z,41.48
2019-04-07T12:00:18.395Z,39.65
2019-04-07T12:02:53.651Z,42.03
2019-04-07T12:05:26.796Z,39.10
2019-04-07T12:08:16.939Z,39.63
2019-04-07T12:10:58.523Z,38.98
2019-04-07T12:13:37.445Z,40.17
2019-04-07T12:16:15.682Z,45.58
2019-04-07T12:18:52.457Z,31.68
2019-04-07T12:21:25.468Z,43.30
2019-04-07T12:26:51.832Z,34.67
2019-04-07T12:29:38.694Z,41.53
2019-04-07T12:32:28.278Z,41.30
2019-04-07T12:35:01.108Z,38.30
2019-04-07T12:37:39.251Z,35.43
2019-04-07T12:40:10.925Z,39.45
2019-04-07T12:42:59.259Z,35.95
2019-04-07T12:45:37.366Z,37.93
2019-04-07T12:48:11.802Z,34.53
2019-04-07T12:50:51.047Z,38.00
2019-04-07T12:53:23.640Z,35.55
2019-04-07T12:56:00.772Z,30.30
2019-04-07T12:58:50.606Z,35.23
2019-04-07T13:01:22.902Z,28.05
2019-04-07T13:04:11.166Z,38.73
2019-04-07T13:06:59.658Z,36.10
2019-04-07T13:09:34.552Z,35.80
2019-04-07T13:12:06.594Z,37.15
2019-04-07T13:14:39.965Z,35.08
2019-04-07T13:20:00.965Z,32.28
2019-04-07T13:22:34.424Z,34.67
2019-04-07T13:27:41.569Z,30.37
2019-04-07T13:30:21.366Z,31.95
2019-04-07T13:33:01.912Z,31.40
2019-04-07T13:35:33.061Z,36.58
2019-04-07T13:38:05.572Z,32.85
2019-04-07T13:40:38.275Z,32.98
2019-04-07T13:43:18.956Z,31.42
2019-04-07T13:45:53.426Z,34.10
2019-04-07T13:50:55.665Z,37.78
2019-04-07T13:53:36.707Z,31.25
2019-04-07T13:56:09.938Z,31.10
2019-04-07T14:01:31.149Z,30.70
2019-04-07T14:04:12.040Z,29.52
2019-04-07T14:06:54.427Z,28.80
2019-04-07T14:09:41.736Z,29.90
2019-04-07T14:12:17.320Z,34.00
2019-04-07T14:14:53.867Z,32.70
2019-04-07T14:17:26.157Z,30.10
2019-04-07T14:20:04.891Z,29.87
2019-04-07T14:22:39.945Z,29.95
2019-04-07T14:25:12.897Z,27.82
2019-04-07T14:27:50.733Z,27.85
2019-04-07T14:30:34.463Z,33.58
2019-04-07T14:35:59.678Z,26.57
2019-04-07T14:38:35.555Z,32.30
2019-04-07T14:41:09.918Z,30.08
2019-04-07T14:44:00.080Z,35.10
2019-04-07T14:46:48.999Z,31.00
2019-04-07T14:49:33.316Z,27.75
2019-04-07T14:52:21.000Z,34.45
2019-04-07T14:55:09.579Z,31.45
2019-04-07T14:57:53.586Z,29.90
2019-04-07T15:00:29.221Z,29.27
2019-04-07T15:02:59.583Z,31.10
2019-04-07T15:05:35.248Z,33.08
2019-04-07T15:08:17.196Z,32.70
2019-04-07T15:10:50.097Z,36.50
2019-04-07T15:13:27.909Z,30.23
2019-04-07T15:15:58.328Z,34.88
2019-04-07T15:18:29.681Z,37.38
2019-04-07T15:21:00.066Z,37.10
2019-04-07T15:23:32.274Z,33.90
2019-04-07T15:26:04.140Z,33.25
2019-04-07T15:28:34.695Z,30.88
2019-04-07T15:31:06.086Z,29.40
2019-04-07T15:33:37.061Z,29.23
2019-04-07T15:36:09.140Z,30.75
2019-04-07T15:38:40.837Z,30.50
2019-04-07T15:41:15.365Z,36.03
2019-04-07T15:43:44.112Z,30.95
2019-04-07T15:46:17.340Z,29.55
2019-04-07T15:48:47.642Z,33.53
2019-04-07T15:51:19.632Z,34.43
2019-04-07T15:53:51.962Z,34.18
2019-04-07T15:56:22.188Z,31.48
2019-04-07T15:58:52.908Z,32.65
2019-04-07T16:01:23.786Z,41.55
2019-04-07T16:03:54.851Z,31.02
2019-04-07T16:06:25.961Z,37.28
2019-04-07T16:08:59.599Z,32.85
2019-04-07T16:11:30.221Z,32.98
2019-04-07T16:14:00.441Z,36.33
2019-04-07T16:16:30.805Z,30.75
2019-04-07T16:19:01.817Z,34.55
2019-04-07T16:21:33.114Z,33.23
2019-04-07T16:24:03.776Z,30.00
2019-04-07T16:26:36.973Z,33.23
2019-04-07T16:29:08.068Z,37.67
2019-04-07T16:31:38.085Z,31.30
2019-04-07T16:34:10.339Z,32.28
2019-04-07T16:36:41.313Z,39.45
2019-04-07T16:39:11.864Z,37.75
2019-04-07T16:41:44.207Z,37.35
2019-04-07T16:44:14.457Z,34.92
2019-04-07T16:46:45.631Z,33.23
2019-04-07T16:49:17.967Z,42.38
2019-04-07T16:51:49.455Z,31.55
2019-04-07T16:54:19.945Z,38.50
2019-04-07T16:56:54.685Z,30.40
2019-04-07T16:59:22.522Z,31.35
2019-04-07T17:01:52.993Z,29.02
2019-04-07T17:04:23.308Z,33.05
2019-04-07T17:07:00.188Z,31.52
2019-04-07T17:09:28.052Z,29.70
2019-04-07T17:11:57.858Z,31.48
2019-04-07T17:14:32.092Z,31.73
2019-04-07T17:17:00.445Z,31.23
2019-04-07T17:19:32.167Z,34.70
2019-04-07T17:22:03.083Z,34.95
2019-04-07T17:24:34.527Z,35.17
2019-04-07T17:27:07.708Z,33.15
2019-04-07T17:29:36.798Z,34.10
2019-04-07T17:32:10.916Z,42.08
2019-04-07T17:35:17.453Z,38.05
2019-04-07T17:38:06.556Z,36.80
2019-04-07T17:40:37.937Z,34.65
2019-04-07T17:43:10.686Z,37.35
2019-04-07T17:46:30.740Z,40.63
2019-04-07T17:49:33.085Z,40.48
2019-04-07T17:52:11.117Z,42.05
2019-04-07T17:58:08.893Z,35.43
2019-04-07T18:04:00.716Z,36.50
2019-04-07T18:06:40.429Z,38.67
2019-04-07T18:09:29.838Z,41.65
2019-04-07T18:29:31.081Z,50.45
2019-04-07T18:32:11.215Z,50.58
2019-04-07T18:34:44.973Z,45.73
2019-04-07T18:37:25.769Z,51.95
2019-04-07T18:40:16.339Z,46.77
2019-04-07T18:49:40.909Z,57.15
2019-04-07T18:52:36.445Z,59.60
2019-04-07T18:55:16.047Z,50.05
2019-04-07T18:58:04.579Z,65.95
2019-04-07T19:00:57.621Z,67.60
2019-04-07T19:03:53.354Z,56.18
2019-04-07T19:06:28.848Z,62.60
2019-04-07T19:09:13.119Z,56.37
2019-04-07T19:12:13.279Z,72.45
2019-04-07T19:14:45.974Z,70.50
2019-04-07T19:17:24.047Z,78.20
2019-04-07T19:22:39.811Z,61.65
2019-04-07T19:25:17.464Z,61.30
2019-04-07T19:28:05.993Z,75.57
2019-04-07T19:30:55.102Z,71.75
2019-04-07T19:33:45.323Z,67.37
2019-04-07T19:36:23.125Z,73.52
2019-04-07T19:39:00.753Z,66.28
2019-04-07T19:41:37.008Z,62.60
2019-04-07T19:44:33.928Z,65.28
2019-04-07T19:47:13.006Z,67.15
2019-04-07T19:49:52.960Z,65.37
2019-04-07T19:52:27.570Z,59.45
2019-04-07T19:55:08.547Z,62.50
2019-04-07T19:57:43.306Z,61.02
2019-04-07T20:00:33.313Z,70.62
2019-04-07T20:03:09.615Z,58.05
2019-04-07T20:05:41.744Z,61.88
2019-04-07T20:08:25.594Z,65.65
2019-04-07T20:13:58.683Z,90.72
2019-04-07T20:16:36.798Z,83.47
2019-04-07T20:19:18.750Z,85.90
2019-04-07T20:21:54.714Z,82.70
2019-04-07T20:30:06.270Z,114.88
2019-04-07T20:32:44.726Z,97.85
2019-04-07T20:35:16.783Z,76.67
2019-04-07T20:38:06.309Z,79.27
2019-04-07T20:40:43.339Z,76.60
2019-04-07T20:43:29.632Z,87.90
2019-04-07T20:46:23.933Z,94.60
2019-04-07T20:49:12.290Z,114.82
2019-04-07T20:51:48.004Z,127.92
2019-04-07T20:57:16.960Z,106.10
2019-04-07T20:59:54.131Z,95.07
2019-04-07T21:02:39.246Z,95.07
2019-04-07T21:05:46.265Z,91.53
2019-04-07T21:08:23.340Z,97.85
2019-04-07T21:11:04.748Z,97.30
2019-04-07T21:13:55.389Z,97.33
2019-04-07T21:16:36.849Z,104.67
2019-04-07T21:19:37.500Z,102.78
2019-04-07T21:22:09.052Z,107.12
2019-04-07T21:24:49.762Z,120.77
2019-04-07T21:27:36.180Z,101.25
2019-04-07T21:30:14.711Z,88.82
2019-04-07T21:33:03.241Z,90.25
2019-04-07T21:35:35.541Z,95.15
2019-04-07T21:38:29.694Z,100.53
2019-04-07T21:41:16.819Z,88.45
2019-04-07T21:43:48.865Z,91.87
2019-04-07T21:46:26.445Z,92.62
2019-04-07T21:49:04.051Z,95.53
2019-04-07T21:51:35.905Z,93.87
2019-04-07T21:54:07.914Z,94.80
2019-04-07T21:56:43.158Z,95.97
2019-04-07T21:59:26.561Z,92.60
2019-04-07T22:02:12.117Z,94.40
2019-04-07T22:04:59.593Z,99.65
2019-04-07T22:07:37.597Z,90.15
2019-04-07T22:10:13.718Z,93.50
2019-04-07T22:12:44.305Z,92.50
2019-04-07T22:15:45.880Z,100.10
2019-04-07T22:18:08.966Z,93.53
2019-04-07T22:20:39.954Z,97.47
2019-04-07T22:23:10.205Z,103.17
2019-04-07T22:25:46.501Z,90.32
2019-04-07T22:28:16.843Z,91.12
2019-04-07T22:30:52.206Z,92.70
2019-04-07T22:33:25.304Z,96.10
2019-04-07T22:36:01.803Z,103.90
2019-04-07T22:38:32.083Z,99.07
2019-04-07T22:41:02.766Z,99.45
2019-04-07T22:43:36.816Z,105.85
2019-04-07T22:46:16.407Z,105.67
2019-04-07T22:48:39.148Z,107.10
2019-04-07T22:51:12.053Z,104.27
2019-04-07T22:53:49.657Z,101.02
2019-04-07T22:56:32.331Z,100.27
2019-04-07T22:59:03.614Z,103.78
2019-04-07T23:01:34.051Z,101.67
2019-04-07T23:04:04.413Z,96.47
2019-04-07T23:06:34.715Z,94.97
2019-04-07T23:09:07.793Z,100.67
2019-04-07T23:11:44.854Z,94.80
2019-04-07T23:14:15.740Z,110.17
2019-04-07T23:16:46.459Z,98.65
2019-04-07T23:19:19.724Z,109.90
2019-04-07T23:21:49.989Z,100.10
2019-04-07T23:24:36.935Z,98.05
2019-04-07T23:27:08.166Z,99.85
2019-04-07T23:29:38.777Z,101.42
2019-04-07T23:32:17.995Z,99.97
2019-04-07T23:34:48.300Z,99.83
2019-04-07T23:37:18.644Z,103.12
2019-04-07T23:39:49.592Z,96.92
2019-04-07T23:42:24.330Z,104.72
2019-04-07T23:47:35.503Z,104.07
2019-04-07T23:50:07.730Z,100.72
2019-04-07T23:52:39.000Z,106.78
2019-04-07T23:55:11.391Z,101.97
2019-04-07T23:57:42.322Z,107.37
